Latest Weather Observations for Julia Creek

IDQ60801

Issued at 12:52 pm EST Monday 19 November 2018 (issued every 10 minutes, with the page automatically refreshed every 10 minutes)

About weather observations | Map of weather stations | Latest weather observations for QLD | Other Formats
Station Details ID: 029058 Name: JULIA CREEK AIRPORT Lat: -20.67 Lon: 141.72 Height: 122.5 m
Data from the previous 72 hours. | See also: Recent months at Julia Creek
Date/Time
EST
Temp
°C
App
Temp
°C
Dew
Point
°C
Rel
Hum
%
Delta-T
°C
Wind Press
QNH
hPa
Press
MSL
hPa
Rain since
9am
mm
Dir  Spd
km/h
Gust
km/h
Spd
kts
Gust
kts
19/12:30pm 32.6 34.8 19.5 46 8.7 WNW 7 15 4 8 1010.2 1009.3 0.0
19/12:00pm 31.7 33.7 20.0 50 7.8 NW 9 17 5 9 1010.6 1009.7 0.0
19/11:30am 30.7 33.1 20.0 52 7.1 N 7 13 4 7 1010.9 1010.0 0.0
19/11:00am 30.2 31.9 19.3 52 7.1 NNW 9 15 5 8 1011.2 1010.4 0.0
19/10:30am 30.7 31.9 20.0 52 7.1 NNW 13 19 7 10 1011.4 1010.6 0.0
19/10:00am 29.0 29.9 19.3 55 6.3 NNW 13 20 7 11 1011.7 1010.9 0.0
19/09:30am 28.7 29.0 19.6 58 6.0 N 17 22 9 12 1011.8 1011.0 0.0
19/09:00am 27.6 29.3 19.4 61 5.3 NNE 9 15 5 8 1011.9 1011.1 16.6
19/08:30am 27.1 29.2 19.4 62 5.0 NE 7 9 4 5 1012.1 1011.3 16.6
19/08:00am 26.2 28.7 20.3 70 3.9 SW 7 11 4 6 1011.9 1011.1 16.4
19/07:30am 24.8 27.0 19.6 73 3.4 W 7 9 4 5 1011.4 1010.6 16.4
19/07:00am 24.0 26.4 20.1 79 2.5 W 7 11 4 6 1010.8 1009.9 16.4
19/06:30am 23.6 26.5 19.9 80 2.4 NNW 4 9 2 5 1010.1 1009.2 16.4
19/06:00am 23.2 25.1 19.8 81 2.2 NNW 9 11 5 6 1009.7 1008.8 16.4
19/05:30am 23.7 25.0 19.4 77 2.8 NNW 11 13 6 7 1009.5 1008.6 16.4
19/05:00am 23.6 24.2 19.5 78 2.6 N 15 17 8 9 1009.1 1008.2 16.4
19/04:30am 23.5 23.9 19.8 80 2.4 N 17 22 9 12 1008.6 1007.7 16.4
19/04:00am 23.6 23.9 19.7 79 2.5 NNE 17 20 9 11 1008.4 1007.5 16.4
19/03:30am 24.1 24.9 19.0 73 3.3 NW 13 17 7 9 1008.7 1007.8 16.4
19/03:00am 24.4 24.0 19.0 72 3.5 W 19 20 10 11 1008.1 1007.2 16.4
19/02:30am 25.2 25.3 18.4 66 4.3 SSW 15 19 8 10 1008.4 1007.5 16.4
19/02:00am 25.7 24.9 18.1 63 4.8 SW 19 24 10 13 1007.3 1006.4 16.4
19/01:30am 26.6 25.4 17.1 56 6.0 NW 19 26 10 14 1007.2 1006.3 16.4
19/01:00am 27.4 25.4 16.4 51 6.9 NW 22 26 12 14 1007.5 1006.6 16.4
19/12:30am 26.9 23.8 16.5 53 6.5 N 28 37 15 20 1008.6 1007.7 16.4
19/12:00am 26.2 23.1 17.6 59 5.4 N 30 35 16 19 1009.9 1009.0 16.4
 
Date/Time
EST
Temp
°C
App
Temp
°C
Dew
Point
°C
Rel
Hum
%
Delta-T
°C
Wind Press
QNH
hPa
Press
MSL
hPa
Rain since
9am
mm
Dir  Spd
km/h
Gust
km/h
Spd
kts
Gust
kts
18/11:30pm 23.8 22.4 19.7 78 2.6 NNE 26 33 14 18 1011.5 1010.7 16.4
18/11:00pm 23.6 20.3 20.1 81 2.3 NNE 37 44 20 24 1012.8 1012.0 16.4
18/10:41pm 23.6 21.3 20.1 81 2.3 NNE 32 44 17 24 1013.1 1012.3 16.0
18/10:30pm 24.3 24.1 20.6 80 2.4 NE 22 26 12 14 1012.9 1012.1 16.0
18/10:00pm 23.8 24.7 20.1 80 2.4 SW 15 19 8 10 1012.1 1011.3 15.4
18/09:41pm 23.2 22.4 20.9 87 1.5 WSW 26 32 14 17 1012.0 1011.2 14.8
18/09:30pm 23.2 22.0 21.5 90 1.1 SW 30 35 16 19 1012.1 1011.3 14.8
18/09:22pm 23.1 23.3 20.6 86 1.6 SW 20 32 11 17 1012.2 1011.4 14.0
18/09:00pm 23.3 23.9 21.4 89 1.3 SW 20 30 11 16 1012.4 1011.6 10.6
18/08:31pm 23.7 23.1 20.6 83 2.0 SSW 24 30 13 16 1011.5 1010.7 9.6
18/08:30pm 23.7 23.1 20.6 83 2.0 SSW 24 30 13 16 1011.5 1010.7 9.6
18/08:16pm 23.6 22.9 21.1 86 1.6 SSW 26 33 14 18 1011.2 1010.4 8.8
18/08:00pm 24.4 25.3 21.5 84 1.9 SSE 19 24 10 13 1011.6 1010.8 5.6
18/07:34pm 24.1 24.2 21.8 87 1.5 SSW 24 30 13 16 1010.2 1009.3 4.8
18/07:30pm 24.1 24.1 21.6 86 1.7 S 24 30 13 16 1010.3 1009.4 4.8
18/07:17pm 23.9 22.3 21.6 87 1.5 S 32 41 17 22 1010.1 1009.2 4.0
18/07:13pm 24.1 21.9 21.4 85 1.8 S 35 50 19 27 1010.0 1009.1 2.8
18/07:00pm 24.6 22.2 21.9 85 1.8 S 37 46 20 25 1009.1 1008.2 2.0
18/06:57pm 24.5 22.5 21.8 85 1.8 S 35 46 19 25 1009.2 1008.3 1.8
18/06:30pm 26.6 22.1 20.0 67 4.3 S 43 56 23 30 1008.3 1007.4 0.0
18/06:29pm 26.8 22.3 19.9 66 4.5 S 43 56 23 30 1008.2 1007.3 0.0
18/06:00pm 31.9 26.0 15.8 38 10.1 SSW 41 57 22 31 1006.9 1006.0 0.0
18/05:51pm 33.3 29.8 14.4 32 11.6 WNW 26 54 14 29 1006.7 1005.8 0.0
18/05:30pm 38.5 35.2 11.5 20 16.3 NNW 20 32 11 17 1005.4 1004.6 0.0
18/05:00pm 38.7 35.2 10.1 18 16.9 NNW 19 28 10 15 1005.1 1004.3 0.0
18/04:30pm 39.5 36.3 9.9 17 17.5 NNW 17 26 9 14 1005.0 1004.2 0.0
18/04:00pm 39.2 36.3 9.7 17 17.4 NW 15 24 8 13 1005.0 1004.2 0.0
18/03:30pm 39.2 35.9 9.7 17 17.4 NNW 17 26 9 14 1005.4 1004.6 0.0
18/03:00pm 38.9 35.2 9.4 17 17.3 NNW 19 28 10 15 1006.0 1005.1 0.0
18/02:30pm 39.2 35.6 9.7 17 17.4 N 19 26 10 14 1006.8 1005.9 0.0
18/02:00pm 39.1 35.8 9.6 17 17.4 N 17 30 9 16 1007.3 1006.4 0.0
18/01:30pm 38.3 35.1 9.8 18 16.7 N 17 35 9 19 1007.9 1007.0 0.0
18/01:00pm 39.7 36.2 10.1 17 17.6 NNW 19 32 10 17 1008.4 1007.5 0.0
18/12:30pm 39.4 34.8 9.8 17 17.5 NW 24 39 13 21 1008.9 1008.0 0.0
18/12:00pm 38.6 33.7 10.0 18 16.9 NNW 26 43 14 23 1009.2 1008.3 0.0
18/11:30am 38.4 33.6 11.5 20 16.2 NNW 28 39 15 21 1009.7 1008.8 0.0
18/11:00am 37.4 32.1 11.4 21 15.6 NNW 30 41 16 22 1009.9 1009.0 0.0
18/10:30am 36.1 30.6 11.7 23 14.6 NNW 32 46 17 25 1010.2 1009.3 0.0
18/10:00am 35.5 30.2 13.1 26 13.7 N 33 41 18 22 1010.2 1009.3 0.0
18/09:46am 36.1 31.5 13.6 26 13.8 NNW 30 48 16 26 1010.3 1009.4 0.0
18/09:30am 35.9 31.5 15.1 29 13.1 NNW 32 43 17 23 1010.4 1009.5 0.0
18/09:00am 34.6 30.3 15.5 32 12.0 NNW 32 41 17 22 1010.3 1009.4 0.0
18/08:30am 33.8 29.4 15.7 33 11.4 NNW 33 41 18 22 1010.2 1009.3 0.0
18/08:00am 32.8 28.3 15.3 34 10.9 NNW 33 41 18 22 1009.7 1008.8 0.0
18/07:30am 32.6 29.4 16.4 37 10.3 NNW 28 39 15 21 1009.4 1008.5 0.0
18/07:00am 31.4 29.1 16.6 41 9.4 NNW 24 32 13 17 1009.2 1008.3 0.0
18/06:30am 30.5 27.6 16.1 41 9.0 NNW 26 33 14 18 1008.7 1007.8 0.0
18/06:00am 30.2 27.0 14.3 38 9.7 N 24 33 13 18 1008.3 1007.4 0.0
18/05:30am 30.0 27.4 13.3 36 10.0 N 19 26 10 14 1008.0 1007.1 0.0
18/05:00am 30.7 27.7 12.6 33 10.8 N 20 26 11 14 1007.6 1006.7 0.0
18/04:30am 30.6 27.7 11.1 30 11.3 NNW 17 22 9 12 1007.4 1006.5 0.0
18/04:00am 30.4 28.1 10.4 29 11.5 WNW 13 15 7 8 1007.1 1006.2 0.0
18/03:30am 30.7 28.4 10.6 29 11.6 SW 13 17 7 9 1007.0 1006.1 0.0
18/03:00am 30.7 29.4 10.1 28 11.8 SSW 7 9 4 5 1007.2 1006.3 0.0
18/02:30am 31.1 29.4 9.9 27 12.1 S 9 13 5 7 1007.2 1006.3 0.0
18/02:00am 30.6 28.6 10.0 28 11.8 S 11 13 6 7 1007.5 1006.6 0.0
18/01:30am 30.8 29.3 10.7 29 11.6 SSE 9 15 5 8 1007.6 1006.7 0.0
18/01:00am 30.5 29.4 10.5 29 11.5 NE 7 11 4 6 1007.6 1006.7 0.0
18/12:30am 30.5 29.3 11.5 31 11.1 NNE 9 13 5 7 1007.9 1007.0 0.0
18/12:00am 30.8 30.1 10.2 28 11.8 WSW 4 11 2 6 1008.0 1007.1 0.0
 
Date/Time
EST
Temp
°C
App
Temp
°C
Dew
Point
°C
Rel
Hum
%
Delta-T
°C
Wind Press
QNH
hPa
Press
MSL
hPa
Rain since
9am
mm
Dir  Spd
km/h
Gust
km/h
Spd
kts
Gust
kts
17/11:30pm 32.3 30.7 11.5 28 12.2 WSW 11 13 6 7 1008.2 1007.3 0.0
17/11:00pm 33.1 30.8 11.6 27 12.7 WSW 15 20 8 11 1008.4 1007.5 0.0
17/10:30pm 33.9 31.2 10.5 24 13.6 WSW 15 20 8 11 1008.7 1007.8 0.0
17/10:00pm 33.3 30.8 8.0 21 14.2 WSW 11 15 6 8 1008.5 1007.6 0.0
17/09:30pm 33.6 31.3 7.6 20 14.5 WSW 9 11 5 6 1008.4 1007.5 0.0
17/09:00pm 35.0 33.0 8.7 20 15.0 WSW 9 11 5 6 1008.3 1007.4 0.0
17/08:30pm 35.0 32.6 8.7 20 15.0 SW 11 15 6 8 1008.1 1007.2 0.0
17/08:00pm 35.2 32.9 5.6 16 16.1 NE 7 9 4 5 1007.7 1006.8 0.0
17/07:30pm 35.9 33.3 6.2 16 16.3 NE 9 9 5 5 1007.5 1006.6 0.0
17/07:00pm 37.0 34.4 6.1 15 17.1 NE 9 13 5 7 1007.3 1006.4 0.0
17/06:30pm 37.7 34.8 6.6 15 17.4 NE 11 15 6 8 1006.8 1005.9 0.0
17/06:00pm 38.1 34.9 7.0 15 17.6 NNE 13 19 7 10 1006.7 1005.8 0.0
17/05:30pm 38.8 35.4 7.5 15 17.8 N 15 24 8 13 1006.5 1005.6 0.0
17/05:00pm 38.6 35.3 6.3 14 18.1 NE 13 26 7 14 1006.4 1005.5 0.0
17/04:30pm 40.1 35.1 6.4 13 19.0 NE 22 30 12 16 1006.3 1005.4 0.0
17/04:00pm 40.5 37.6 6.7 13 19.2 NW 11 20 6 11 1006.6 1005.7 0.0
17/03:30pm 39.6 36.5 7.1 14 18.5 NNW 13 30 7 16 1007.0 1006.1 0.0
17/03:00pm 39.3 35.4 6.9 14 18.4 NE 17 26 9 14 1007.3 1006.4 0.0
17/02:30pm 40.4 36.8 6.7 13 19.1 NNE 15 26 8 14 1007.9 1007.0 0.0
17/02:00pm 40.0 35.8 7.4 14 18.7 NNW 19 43 10 23 1008.5 1007.6 0.0
17/01:30pm 39.5 35.2 7.1 14 18.4 NNE 19 30 10 16 1009.1 1008.2 0.0
17/01:00pm 39.5 35.3 8.1 15 18.1 N 20 32 11 17 1009.5 1008.6 0.0
17/12:30pm 38.5 34.3 8.2 16 17.4 N 20 33 11 18 1010.1 1009.2 0.0
17/12:00pm 39.5 34.5 8.1 15 18.1 N 24 39 13 21 1010.5 1009.6 0.0
17/11:30am 38.3 32.5 8.1 16 17.3 NNW 28 41 15 22 1010.8 1009.9 0.0
17/11:00am 36.9 30.7 7.8 17 16.5 N 30 43 16 23 1011.3 1010.5 0.0
17/10:30am 35.4 28.4 8.3 19 15.4 N 35 44 19 24 1011.6 1010.8 0.0
17/10:00am 35.7 29.3 9.3 20 15.2 N 33 44 18 24 1011.7 1010.9 0.0
17/09:30am 35.4 28.7 9.7 21 14.9 N 35 46 19 25 1011.8 1011.0 0.0
17/09:00am 33.8 26.4 9.8 23 13.8 N 39 54 21 29 1011.7 1010.9 0.0
17/08:30am 33.3 26.1 10.6 25 13.2 N 39 48 21 26 1011.8 1011.0 0.0
17/08:00am 32.1 26.7 12.8 30 11.6 N 33 46 18 25 1011.6 1010.8 0.0
17/07:30am 30.9 26.1 11.8 31 11.2 N 28 35 15 19 1011.2 1010.4 0.0
17/07:00am 29.7 25.6 8.7 27 11.7 NNE 20 26 11 14 1011.2 1010.4 0.0
17/06:30am 28.9 25.2 8.0 27 11.4 NNE 17 20 9 11 1010.8 1009.9 0.0
17/06:00am 28.6 25.7 8.3 28 11.1 NE 13 15 7 8 1010.5 1009.6 0.0
17/05:30am 28.9 25.7 8.6 28 11.2 NE 15 19 8 10 1010.0 1009.1 0.0
17/05:00am 29.3 25.7 8.4 27 11.5 NE 17 20 9 11 1009.7 1008.8 0.0
17/04:30am 29.4 26.6 8.5 27 11.6 ENE 13 17 7 9 1009.5 1008.6 0.0
17/04:00am 28.8 25.8 7.9 27 11.4 E 13 17 7 9 1009.1 1008.2 0.0
17/03:30am 29.2 25.8 7.7 26 11.7 ENE 15 19 8 10 1008.9 1008.0 0.0
17/03:00am 29.1 25.7 7.7 26 11.7 E 15 20 8 11 1008.8 1007.9 0.0
17/02:30am 29.3 25.9 7.8 26 11.7 E 15 19 8 10 1008.6 1007.7 0.0
17/02:00am 29.4 26.2 8.5 27 11.6 E 15 17 8 9 1008.5 1007.6 0.0
17/01:30am 28.9 26.1 8.6 28 11.2 ESE 13 15 7 8 1008.8 1007.9 0.0
17/01:00am 29.5 26.7 8.5 27 11.6 SE 13 15 7 8 1008.9 1008.0 0.0
17/12:30am 30.9 27.6 9.7 27 12.0 SE 17 22 9 12 1009.5 1008.6 0.0
17/12:00am 29.0 26.5 9.7 30 10.9 SSW 13 15 7 8 1009.9 1009.0 0.0
 
Date/Time
EST
Temp
°C
App
Temp
°C
Dew
Point
°C
Rel
Hum
%
Delta-T
°C
Wind Press
QNH
hPa
Press
MSL
hPa
Rain since
9am
mm
Dir  Spd
km/h
Gust
km/h
Spd
kts
Gust
kts
16/11:30pm 29.4 27.0 10.0 30 11.0 SSW 13 15 7 8 1010.1 1009.2 0.0
16/11:00pm 29.8 27.5 10.4 30 11.1 SSW 13 15 7 8 1010.4 1009.5 0.0
16/10:30pm 30.2 27.8 10.2 29 11.4 SW 13 15 7 8 1010.7 1009.8 0.0
16/10:00pm 31.8 29.7 11.0 28 12.1 SW 13 15 7 8 1010.6 1009.7 0.0
16/09:30pm 32.8 30.0 11.3 27 12.6 SW 17 20 9 11 1010.4 1009.5 0.0
16/09:00pm 31.9 29.2 8.8 24 13.0 S 13 20 7 11 1010.1 1009.2 0.0
16/08:30pm 32.5 30.2 7.4 21 13.8 ESE 9 11 5 6 1009.7 1008.8 0.0
16/08:00pm 32.9 30.3 7.7 21 14.0 SE 11 11 6 6 1009.4 1008.5 0.0
16/07:30pm 33.7 31.4 7.6 20 14.5 SE 9 11 5 6 1009.0 1008.1 0.0
16/07:00pm 34.9 32.3 7.9 19 15.2 ESE 11 13 6 7 1008.8 1007.9 0.0
16/06:30pm 36.6 33.8 8.4 18 16.1 ESE 13 13 7 7 1008.6 1007.7 0.0
16/06:00pm 37.2 35.4 8.1 17 16.6 SE 7 15 4 8 1008.3 1007.4 0.0
16/05:30pm 38.3 35.8 8.1 16 17.3 E 11 20 6 11 1008.1 1007.2 0.0
16/05:00pm 38.5 34.9 8.2 16 17.4 E 17 28 9 15 1008.0 1007.1 0.0
16/04:30pm 38.3 35.4 8.1 16 17.3 ENE 13 20 7 11 1008.1 1007.2 0.0
16/04:00pm 38.7 35.3 9.3 17 17.2 E 17 22 9 12 1008.2 1007.3 0.0
16/03:30pm 38.8 37.1 8.5 16 17.5 NE 7 15 4 8 1008.5 1007.6 0.0
16/03:00pm 38.0 36.4 8.7 17 16.9 E 7 22 4 12 1008.9 1008.0 0.0
16/02:30pm 38.1 35.4 8.8 17 16.9 E 13 24 7 13 1009.3 1008.4 0.0
16/02:00pm 38.2 36.3 8.9 17 17.0 NNE 9 15 5 8 1009.7 1008.8 0.0
16/01:30pm 37.5 34.9 9.2 18 16.4 ENE 13 22 7 12 1010.2 1009.3 0.0
16/01:00pm 38.0 35.1 9.6 18 16.6 NNE 15 20 8 11 1010.7 1009.8 0.0

Other Formats:

Comma delimited format used in spreadsheet applications
http://www.bom.gov.au/fwo/IDQ60801/IDQ60801.94337.axf

JavaScript Object Notation format (JSON) in row-major order
http://www.bom.gov.au/fwo/IDQ60801/IDQ60801.94337.json